Time;durP1;ratioP1;P1;durP2;ratioP2;P2;SDS_P1;SDS_P2;PMS_P1;PMS_P2;Temp;Humidity;BMP_temperature;BMP_pressure;BME280_temperature;BME280_humidity;BME280_pressure;Samples;Min_cycle;Max_cycle;Signal;HPM_P1;HPM_P2
2023/05/07 00:00:07;;;;;;;9.15;3.88;;;;;;;21.19;64.52;98785.56;2075477;28;20584;-55
2023/05/07 00:01:10;;;;;;;7.70;3.58;;;;;;;21.18;64.68;98783.91;2075480;28;20176;-51
2023/05/07 00:02:11;;;;;;;8.13;3.20;;;;;;;21.20;64.35;98784.53;2075500;28;20091;-53
2023/05/07 00:03:13;;;;;;;5.57;3.28;;;;;;;21.20;64.11;98780.97;2072443;28;20068;-54
2023/05/07 00:04:14;;;;;;;7.70;3.28;;;;;;;21.19;64.55;98785.56;2075014;28;20060;-55
2023/05/07 00:05:16;;;;;;;6.30;2.90;;;;;;;21.20;64.55;98780.97;2075358;28;20508;-54
2023/05/07 00:06:17;;;;;;;7.20;3.88;;;;;;;21.22;64.22;98778.91;2076750;28;20053;-54
2023/05/07 00:07:18;;;;;;;6.10;2.70;;;;;;;21.21;64.69;98782.66;2074567;28;20072;-54
2023/05/07 00:08:20;;;;;;;6.22;2.95;;;;;;;21.22;64.55;98778.06;2075792;28;20103;-54
2023/05/07 00:09:21;;;;;;;11.02;3.22;;;;;;;21.19;64.30;98776.63;2073746;28;21033;-54
2023/05/07 00:10:22;;;;;;;6.88;2.97;;;;;;;21.20;64.60;98776.44;2075178;28;20976;-51
2023/05/07 00:11:24;;;;;;;8.02;3.45;;;;;;;21.19;64.70;98780.16;2077564;28;20060;-55
2023/05/07 00:12:25;;;;;;;6.43;3.25;;;;;;;21.18;64.37;98773.13;2075195;28;20053;-54
2023/05/07 00:13:27;;;;;;;7.10;3.13;;;;;;;21.18;64.57;98770.41;2077468;28;20041;-52
2023/05/07 00:14:27;;;;;;;6.97;4.35;;;;;;;21.19;64.43;98774.75;2075140;28;20059;-57
2023/05/07 00:15:30;;;;;;;;;;;;;;;21.09;64.90;98770.88;2076884;28;20446;-54
2023/05/07 00:16:31;;;;;;;9.57;3.20;;;;;;;21.11;64.51;98774.19;2075408;28;19974;-54
2023/05/07 00:17:34;;;;;;;7.18;3.88;;;;;;;21.15;64.95;98778.13;2075739;28;20080;-54
2023/05/07 00:18:34;;;;;;;5.65;3.05;;;;;;;21.17;64.74;98770.63;2074525;28;20060;-54
2023/05/07 00:19:36;;;;;;;6.70;3.55;;;;;;;21.18;64.51;98775.81;2076780;28;20049;-51
2023/05/07 00:20:37;;;;;;;7.72;4.22;;;;;;;21.18;64.44;98769.59;2074880;28;20099;-54
2023/05/07 00:21:38;;;;;;;;;;;;;;;21.09;64.74;98771.72;2076267;28;20049;-51
2023/05/07 00:22:39;;;;;;;4.15;2.65;;;;;;;21.11;65.05;98775.03;2075071;28;19990;-53
2023/05/07 00:23:40;;;;;;;5.32;2.90;;;;;;;21.14;64.67;98777.28;2075194;28;20058;-54
2023/05/07 00:24:42;;;;;;;8.38;4.03;;;;;;;21.17;64.48;98776.03;2074855;28;20076;-54
2023/05/07 00:25:43;;;;;;;5.13;3.63;;;;;;;21.18;64.59;98778.50;2075406;28;20538;-54
2023/05/07 00:26:44;;;;;;;6.20;3.30;;;;;;;21.18;64.37;98775.81;2075398;28;20477;-51
2023/05/07 00:27:46;;;;;;;;;;;;;;;21.07;64.83;98773.81;2075870;28;20049;-52
2023/05/07 00:28:46;;;;;;;;;;;;;;;21.00;64.86;98773.00;2077776;28;19924;-51
2023/05/07 00:29:48;;;;;;;4.03;2.70;;;;;;;21.05;65.07;98775.88;2077093;28;19929;-54
2023/05/07 00:30:50;;;;;;;6.88;3.25;;;;;;;21.11;64.55;98777.72;2074281;28;20425;-53
2023/05/07 00:31:53;;;;;;;5.70;3.00;;;;;;;21.13;64.94;98772.94;2077049;28;20059;-51
2023/05/07 00:32:54;;;;;;;5.72;3.00;;;;;;;21.15;64.85;98776.25;2076362;28;22349;-52
2023/05/07 00:33:56;;;;;;;9.10;2.67;;;;;;;21.16;64.83;98775.19;2077651;28;20045;-53
2023/05/07 00:34:56;;;;;;;5.20;2.97;;;;;;;21.18;64.65;98780.38;2075253;28;20075;-51
2023/05/07 00:35:58;;;;;;;5.15;3.40;;;;;;;21.18;64.64;98778.50;2074515;28;20050;-53
2023/05/07 00:36:58;;;;;;;5.82;3.10;;;;;;;21.18;64.59;98766.91;2076448;28;20083;-51
2023/05/07 00:38:00;;;;;;;6.13;3.53;;;;;;;21.18;64.81;98781.22;2075978;28;20054;-51
2023/05/07 00:39:03;;;;;;;4.68;3.10;;;;;;;21.19;64.69;98779.34;2075116;28;20053;-51
2023/05/07 00:40:07;;;;;;;5.80;2.90;;;;;;;21.18;64.80;98783.91;2075404;28;20045;-52
2023/05/07 00:41:08;;;;;;;6.13;3.28;;;;;;;21.19;64.55;98782.84;2075194;28;20041;-53
2023/05/07 00:42:09;;;;;;;6.53;3.20;;;;;;;21.17;64.99;98781.41;2075727;28;20069;-53
2023/05/07 00:43:10;;;;;;;4.32;2.72;;;;;;;21.18;64.67;98785.78;2076670;28;22128;-53
2023/05/07 00:44:12;;;;;;;3.92;2.80;;;;;;;21.17;64.83;98782.25;2077583;28;20136;-51
2023/05/07 00:45:13;;;;;;;5.97;3.22;;;;;;;21.17;64.77;98779.56;2076070;28;20106;-51
2023/05/07 00:46:16;;;;;;;;;;;;;;;21.07;65.25;98783.78;2076769;28;20833;-50
2023/05/07 00:47:17;;;;;;;8.13;2.92;;;;;;;21.09;64.93;98785.22;2076008;28;20298;-52
2023/05/07 00:48:19;;;;;;;5.82;3.05;;;;;;;21.13;65.13;98797.22;2077054;28;20088;-52
2023/05/07 00:49:20;;;;;;;6.15;2.97;;;;;;;21.15;64.71;98791.63;2076012;28;20051;-54
2023/05/07 00:50:22;;;;;;;4.07;2.50;;;;;;;21.17;65.07;98792.19;2076990;28;20081;-52
2023/05/07 00:51:26;;;;;;;3.60;2.50;;;;;;;21.18;65.09;98791.19;2077126;28;20099;-54
2023/05/07 00:52:29;;;;;;;3.65;2.50;;;;;;;21.15;64.86;98792.44;2078186;28;20041;-54
2023/05/07 00:53:30;;;;;;;6.18;2.95;;;;;;;21.18;65.04;98789.31;2074697;28;20123;-53
2023/05/07 00:54:32;;;;;;;;;;;;;;;21.05;65.25;98792.06;2077473;28;20053;-53
2023/05/07 00:55:32;;;;;;;4.93;3.33;;;;;;;21.10;64.96;98786.03;2075870;28;19928;-51
2023/05/07 00:56:35;;;;;;;;;;;;;;;21.03;65.41;98788.75;2076159;28;20045;-53
2023/05/07 00:57:37;;;;;;;6.65;2.95;;;;;;;21.07;65.34;98789.16;2076050;28;19929;-51
2023/05/07 00:58:39;;;;;;;6.38;3.05;;;;;;;21.10;65.31;98786.84;2074589;28;20119;-53
2023/05/07 00:59:41;;;;;;;3.70;2.83;;;;;;;21.13;65.19;98796.38;2075698;28;20078;-51
2023/05/07 01:00:43;;;;;;;3.35;2.38;;;;;;;21.16;65.02;98785.16;2076023;28;20053;-54
2023/05/07 01:01:45;;;;;;;7.10;2.97;;;;;;;21.15;64.84;98787.03;2075883;28;20096;-54
2023/05/07 01:02:47;;;;;;;7.90;3.08;;;;;;;21.16;64.94;98790.56;2076561;28;20057;-52
2023/05/07 01:03:48;;;;;;;5.07;2.70;;;;;;;21.16;65.04;98794.06;2077784;28;20053;-53
2023/05/07 01:04:49;;;;;;;5.18;3.33;;;;;;;21.16;65.08;98796.78;2075518;28;20137;-52
2023/05/07 01:05:52;;;;;;;6.50;2.97;;;;;;;21.17;64.93;98798.44;2076471;28;20057;-53
2023/05/07 01:06:57;;;;;;;4.55;2.42;;;;;;;21.17;65.16;98795.75;2076770;28;20061;-53
2023/05/07 01:07:58;;;;;;;5.88;2.92;;;;;;;21.17;65.04;98803.84;2074356;28;20103;-54
2023/05/07 01:09:00;;;;;;;3.72;3.17;;;;;;;21.15;65.25;98795.13;2075247;28;20041;-52
2023/05/07 01:10:01;;;;;;;5.15;2.75;;;;;;;21.17;65.38;98794.91;2074978;28;20095;-53
2023/05/07 01:11:04;;;;;;;4.63;2.15;;;;;;;21.17;65.11;98797.59;2077727;28;20053;-53
2023/05/07 01:12:06;;;;;;;5.00;3.03;;;;;;;21.17;65.19;98792.19;2075086;28;20136;-53
2023/05/07 01:13:07;;;;;;;3.75;2.60;;;;;;;21.16;65.36;98790.56;2079679;28;20045;-51
2023/05/07 01:14:09;;;;;;;6.00;3.10;;;;;;;21.17;65.30;98793.06;2076660;28;20049;-53
2023/05/07 01:15:11;;;;;;;4.57;2.33;;;;;;;21.16;65.20;98796.78;2077332;28;20049;-54
2023/05/07 01:16:12;;;;;;;4.53;3.00;;;;;;;21.17;64.89;98794.91;2075770;28;20052;-54
2023/05/07 01:17:15;;;;;;;6.50;2.85;;;;;;;21.16;65.19;98795.97;2075566;28;20057;-52
2023/05/07 01:18:16;;;;;;;5.65;3.65;;;;;;;21.15;65.26;98794.31;2076717;28;20081;-53
2023/05/07 01:19:19;;;;;;;4.45;2.83;;;;;;;21.17;65.04;98793.06;2075908;28;20049;-53
2023/05/07 01:20:20;;;;;;;4.55;2.83;;;;;;;21.17;65.26;98795.75;2075126;28;20727;-54
2023/05/07 01:21:26;;;;;;;4.35;2.42;;;;;;;21.16;65.09;98794.06;2076402;28;20052;-53
2023/05/07 01:22:32;;;;;;;4.70;2.90;;;;;;;21.15;65.54;98797.84;2076112;28;20053;-54
2023/05/07 01:23:35;;;;;;;4.65;3.10;;;;;;;21.15;65.34;98789.75;2076778;28;20687;-54
2023/05/07 01:24:36;;;;;;;5.40;2.83;;;;;;;21.14;65.33;98792.63;2076076;28;20061;-54
2023/05/07 01:25:38;;;;;;;5.30;2.42;;;;;;;21.16;65.55;98793.25;2074142;28;21019;-52
2023/05/07 01:26:39;;;;;;;5.15;2.55;;;;;;;21.16;65.52;98790.56;2074226;28;20049;-54
2023/05/07 01:27:41;;;;;;;6.90;3.13;;;;;;;21.15;65.60;98789.75;2076881;28;20063;-49
2023/05/07 01:28:41;;;;;;;6.43;2.70;;;;;;;21.15;65.86;98789.75;2078083;28;20102;-49
2023/05/07 01:29:43;;;;;;;7.78;2.70;;;;;;;21.16;65.77;98791.38;2077633;28;21079;-51
2023/05/07 01:31:03;;;;;;;3.35;2.45;;;;;;;21.16;65.78;98787.88;2077174;28;20638;-52
2023/05/07 01:32:06;;;;;;;3.83;2.80;;;;;;;21.15;65.48;98784.34;2077883;28;20064;-52
2023/05/07 01:33:11;;;;;;;4.13;2.45;;;;;;;21.14;65.76;98779.16;2077871;28;20045;-51
2023/05/07 01:34:15;;;;;;;6.00;3.35;;;;;;;21.14;65.58;98779.97;2077016;28;20191;-52
2023/05/07 01:35:19;;;;;;;3.15;2.17;;;;;;;21.14;65.77;98782.66;2078981;28;20057;-52
2023/05/07 01:36:25;;;;;;;6.15;3.13;;;;;;;21.15;65.75;98780.81;2078647;28;20302;-55
2023/05/07 01:37:26;;;;;;;9.88;3.85;;;;;;;21.14;65.67;98782.66;2077922;28;20634;-51
2023/05/07 01:38:30;;;;;;;4.18;2.72;;;;;;;21.14;65.69;98779.97;2076481;28;20471;-53
2023/05/07 01:39:32;;;;;;;3.92;2.58;;;;;;;21.14;65.59;98781.84;2078251;28;20052;-52
2023/05/07 01:40:35;;;;;;;4.70;3.05;;;;;;;21.15;65.90;98776.25;2078132;28;20045;-51
2023/05/07 01:41:35;;;;;;;3.92;2.33;;;;;;;21.15;65.82;98778.94;2077288;28;20598;-53
2023/05/07 01:42:37;;;;;;;6.03;2.65;;;;;;;21.15;65.30;98778.94;2079020;28;20157;-55
2023/05/07 01:43:41;;;;;;;3.42;2.65;;;;;;;21.15;65.36;98773.56;2076555;28;20053;-55
2023/05/07 01:44:42;;;;;;;3.97;2.35;;;;;;;21.14;65.53;98781.84;2077554;28;20777;-53
2023/05/07 01:45:45;;;;;;;5.63;2.70;;;;;;;21.14;65.46;98779.97;2077604;28;20053;-51
2023/05/07 01:46:48;;;;;;;6.00;2.85;;;;;;;21.14;65.61;98777.28;2079797;28;20068;-49
2023/05/07 01:47:50;;;;;;;5.93;2.47;;;;;;;21.14;65.44;98774.59;2077127;28;20102;-50
2023/05/07 01:48:52;;;;;;;6.43;2.85;;;;;;;21.14;65.67;98774.59;2076979;28;20154;-52
2023/05/07 01:49:53;;;;;;;5.13;2.90;;;;;;;21.15;65.50;98780.81;2076298;28;20106;-53
2023/05/07 01:50:55;;;;;;;3.38;1.75;;;;;;;21.15;65.42;98772.75;2077183;28;20059;-50
2023/05/07 01:51:56;;;;;;;4.82;2.67;;;;;;;21.15;65.51;98778.94;2076517;28;20049;-54
2023/05/07 01:52:58;;;;;;;4.75;3.03;;;;;;;21.15;65.64;98778.13;2076126;28;20057;-51
2023/05/07 01:54:00;;;;;;;5.82;3.08;;;;;;;21.15;65.43;98778.13;2075793;28;20147;-50
2023/05/07 01:55:01;;;;;;;6.05;2.45;;;;;;;21.14;65.71;98781.84;2076890;28;20049;-53
2023/05/07 01:56:02;;;;;;;4.18;2.65;;;;;;;21.12;65.52;98774.00;2078516;28;20144;-54
2023/05/07 01:57:04;;;;;;;3.25;2.67;;;;;;;21.12;65.57;98779.38;2075549;28;20061;-51
2023/05/07 01:58:23;;;;;;;5.65;2.65;;;;;;;21.09;65.67;98774.44;2075729;28;20135;-53
2023/05/07 01:59:25;;;;;;;4.03;2.08;;;;;;;21.11;65.33;98771.50;2077505;28;20533;-53
2023/05/07 02:00:26;;;;;;;4.57;2.40;;;;;;;21.12;65.50;98774.00;2078904;28;20578;-53
2023/05/07 02:01:27;;;;;;;4.53;2.42;;;;;;;21.13;65.52;98774.81;2076796;28;21071;-50
2023/05/07 02:02:31;;;;;;;2.65;1.95;;;;;;;21.12;65.24;98776.69;2076538;28;20048;-52
2023/05/07 02:03:32;;;;;;;6.68;2.38;;;;;;;21.13;65.17;98774.81;2075986;28;20053;-55
2023/05/07 02:04:33;;;;;;;4.10;2.35;;;;;;;21.14;65.51;98771.06;2077612;28;20145;-51
2023/05/07 02:05:34;;;;;;;;;;;;;;;21.01;65.49;98776.56;2076237;28;20823;-52
2023/05/07 02:06:35;;;;;;;3.40;2.53;;;;;;;21.04;65.61;98771.56;2076129;28;19924;-51
2023/05/07 02:07:37;;;;;;;6.05;2.40;;;;;;;21.06;65.43;98774.88;2076641;28;20065;-54
2023/05/07 02:08:38;;;;;;;3.70;2.47;;;;;;;21.09;65.31;98770.88;2075300;28;20049;-52
2023/05/07 02:09:40;;;;;;;;;;;;;;;21.01;65.69;98776.56;2077523;28;20061;-52
2023/05/07 02:10:41;;;;;;;7.32;2.53;;;;;;;21.03;65.35;98775.28;2077885;28;19924;-54
2023/05/07 02:11:42;;;;;;;;;;;;;;;20.96;66.07;98771.81;2077174;28;20049;-54
2023/05/07 02:12:43;;;;;;;4.13;2.47;;;;;;;21.00;65.83;98769.50;2075371;28;20060;-54
2023/05/07 02:13:45;;;;;;;2.13;1.77;;;;;;;21.04;65.86;98779.63;2078451;28;20106;-54
2023/05/07 02:14:46;;;;;;;5.60;3.00;;;;;;;21.08;65.43;98775.44;2076808;28;20465;-54
2023/05/07 02:15:50;;;;;;;3.10;2.05;;;;;;;21.08;65.27;98767.38;2077340;28;20053;-54
2023/05/07 02:16:50;;;;;;;3.05;2.17;;;;;;;21.09;65.27;98768.19;2076330;28;20549;-54
2023/05/07 02:18:02;;;;;;;;;;;;;;;20.98;65.69;98770.53;2067982;28;20049;-56
2023/05/07 02:19:03;;;;;;;3.88;2.15;;;;;;;21.02;65.47;98770.94;2074304;28;20594;-49
2023/05/07 02:20:07;;;;;;;2.83;2.42;;;;;;;21.06;65.51;98768.63;2077930;28;20037;-51
2023/05/07 02:21:07;;;;;;;6.18;2.45;;;;;;;21.06;65.29;98764.06;2077431;28;20208;-56
2023/05/07 02:22:10;;;;;;;4.00;2.42;;;;;;;21.08;65.19;98761.97;2076433;28;20124;-50
2023/05/07 02:23:11;;;;;;;4.03;2.17;;;;;;;21.09;65.36;98769.03;2073405;28;20094;-51
2023/05/07 02:24:13;;;;;;;2.97;1.90;;;;;;;21.10;65.13;98765.28;2074735;28;21616;-54
2023/05/07 02:25:15;;;;;;;9.13;2.40;;;;;;;21.12;64.66;98765.09;2076442;28;20049;-50
2023/05/07 02:26:17;;;;;;;4.93;2.50;;;;;;;21.12;65.33;98768.59;2077762;28;20434;-52
2023/05/07 02:27:17;;;;;;;5.43;2.30;;;;;;;21.11;65.46;98763.41;2077036;28;20045;-50
2023/05/07 02:28:18;;;;;;;4.13;2.53;;;;;;;21.10;65.08;98765.28;2077078;28;20053;-54
2023/05/07 02:29:19;;;;;;;;;;;;;;;21.00;65.00;98764.91;2077475;28;20084;-54
2023/05/07 02:30:21;;;;;;;4.35;2.25;;;;;;;21.03;65.10;98758.25;2076617;28;19925;-52
2023/05/07 02:31:22;;;;;;;3.53;2.00;;;;;;;21.05;64.88;98762.41;2077299;28;20128;-51
2023/05/07 02:32:23;;;;;;;3.85;2.42;;;;;;;21.07;65.41;98765.72;2078338;28;20041;-54
2023/05/07 02:33:25;;;;;;;;;;;;;;;20.97;65.36;98754.56;2079282;28;20564;-53
2023/05/07 02:34:25;;;;;;;4.53;1.92;;;;;;;21.01;65.00;98757.69;2076564;28;19925;-53
2023/05/07 02:35:27;;;;;;;1.88;1.70;;;;;;;21.04;64.83;98758.06;2076916;28;20101;-50
2023/05/07 02:36:27;;;;;;;3.28;1.92;;;;;;;21.08;65.26;98761.97;2076567;28;20141;-51
2023/05/07 02:37:29;;;;;;;;;;;;;;;20.98;65.17;98756.25;2077131;28;20060;-53
2023/05/07 02:38:30;;;;;;;3.33;1.83;;;;;;;21.01;65.78;98761.19;2075925;28;19925;-51
2023/05/07 02:39:31;;;;;;;4.97;1.90;;;;;;;21.02;65.13;98756.63;2072210;28;20537;-51
2023/05/07 02:40:33;;;;;;;2.25;1.75;;;;;;;21.04;64.99;98755.38;2076844;28;20495;-49
2023/05/07 02:41:35;;;;;;;4.57;2.13;;;;;;;21.07;65.20;98757.63;2076247;28;20132;-52
2023/05/07 02:42:36;;;;;;;2.03;1.52;;;;;;;21.06;65.17;98749.75;2076669;28;20057;-52
2023/05/07 02:43:37;;;;;;;;;;;;;;;20.96;65.18;98752.94;2077991;28;20107;-51
2023/05/07 02:44:38;;;;;;;5.63;2.20;;;;;;;21.00;65.17;98751.44;2078278;28;19920;-53
2023/05/07 02:45:39;;;;;;;;;;;;;;;20.92;65.81;98751.69;2075366;28;20087;-54
2023/05/07 02:46:40;;;;;;;5.50;1.90;;;;;;;20.96;65.30;98742.97;2077119;28;19979;-51
2023/05/07 02:47:41;;;;;;;;;;;;;;;20.91;65.75;98755.44;2076266;28;20045;-52
2023/05/07 02:48:42;;;;;;;3.55;1.77;;;;;;;20.95;65.56;98752.09;2077972;28;19924;-50
2023/05/07 02:49:44;;;;;;;5.20;2.30;;;;;;;21.01;65.49;98749.59;2076669;28;20107;-50
2023/05/07 02:50:45;;;;;;;2.45;1.88;;;;;;;21.01;65.62;98750.41;2075915;28;20068;-50
2023/05/07 02:51:46;;;;;;;;;;;;;;;20.94;65.52;98747.72;2077596;28;20080;-50
2023/05/07 02:52:47;;;;;;;4.22;2.03;;;;;;;20.99;65.43;98747.09;2077981;28;19925;-54
2023/05/07 02:53:49;;;;;;;4.85;2.30;;;;;;;21.01;65.06;98739.63;2076477;28;20111;-54
2023/05/07 02:54:50;;;;;;;4.32;2.22;;;;;;;21.02;65.42;98746.66;2071999;28;20049;-51
2023/05/07 02:55:53;;;;;;;3.75;1.98;;;;;;;21.05;65.45;98742.72;2076017;28;20063;-49
2023/05/07 02:56:54;;;;;;;2.45;1.80;;;;;;;21.05;65.23;98735.44;2075988;28;20408;-51
2023/05/07 02:57:55;;;;;;;;;;;;;;;20.96;65.44;98737.56;2075961;28;20049;-50
2023/05/07 02:58:56;;;;;;;5.28;1.98;;;;;;;21.00;65.03;98737.94;2076223;28;20383;-53
2023/05/07 02:59:59;;;;;;;;;;;;;;;20.91;65.61;98736.56;2077986;28;20041;-51
2023/05/07 03:00:59;;;;;;;5.97;1.92;;;;;;;20.98;65.62;98740.06;2074304;28;20371;-53
2023/05/07 03:02:01;;;;;;;;;;;;;;;20.92;65.75;98736.38;2078850;28;20052;-50
2023/05/07 03:03:01;;;;;;;6.53;2.00;;;;;;;20.95;65.43;98735.09;2075474;28;22004;-52
2023/05/07 03:04:03;;;;;;;;;;;;;;;20.90;65.42;98734.91;2077915;28;20053;-53
2023/05/07 03:05:05;;;;;;;3.63;2.30;;;;;;;20.95;65.59;98733.22;2079555;28;19925;-54
2023/05/07 03:06:07;;;;;;;2.97;2.03;;;;;;;21.00;64.93;98732.56;2077020;28;20055;-51
2023/05/07 03:07:08;;;;;;;2.78;2.08;;;;;;;21.02;64.88;98732.34;2076497;28;20068;-53
2023/05/07 03:08:09;;;;;;;;;;;;;;;20.96;65.28;98745.66;2078475;28;20131;-53
2023/05/07 03:09:13;;;;;;;4.70;2.00;;;;;;;21.01;64.91;98736.09;2075999;28;19981;-52
2023/05/07 03:10:14;;;;;;;4.68;2.47;;;;;;;21.02;64.57;98737.75;2076702;28;20044;-53
2023/05/07 03:11:17;;;;;;;3.50;1.85;;;;;;;21.05;64.54;98734.63;2076102;28;20673;-51
2023/05/07 03:12:18;;;;;;;3.83;2.10;;;;;;;21.08;64.99;98739.56;2076208;28;20065;-54
2023/05/07 03:13:19;;;;;;;2.95;1.67;;;;;;;21.08;64.89;98737.69;2077017;28;20076;-55
2023/05/07 03:14:21;;;;;;;;;;;;;;;20.98;65.29;98737.38;2076827;28;20053;-52
2023/05/07 03:15:21;;;;;;;2.55;1.60;;;;;;;21.02;64.74;98733.19;2075446;28;19971;-53
2023/05/07 03:16:23;;;;;;;;;;;;;;;20.93;65.16;98735.31;2075816;28;20053;-51
2023/05/07 03:17:23;;;;;;;2.00;1.52;;;;;;;20.95;65.39;98735.94;2074399;28;19925;-52
2023/05/07 03:18:25;;;;;;;3.65;2.00;;;;;;;21.02;65.00;98738.56;2075911;28;20061;-49
2023/05/07 03:19:26;;;;;;;2.10;1.55;;;;;;;21.02;65.14;98730.47;2075544;28;20049;-52
2023/05/07 03:20:27;;;;;;;6.07;2.00;;;;;;;21.04;64.89;98732.97;2074138;28;20134;-48
2023/05/07 03:21:28;;;;;;;3.92;1.95;;;;;;;21.04;65.05;98733.78;2076309;28;20126;-52
2023/05/07 03:22:30;;;;;;;2.85;1.55;;;;;;;21.05;64.95;98730.03;2073818;28;20901;-53
2023/05/07 03:23:30;;;;;;;3.05;1.85;;;;;;;21.05;64.82;98730.03;2076526;28;20056;-52
2023/05/07 03:24:32;;;;;;;2.08;1.80;;;;;;;21.05;64.94;98735.44;2076177;28;21038;-51
2023/05/07 03:25:33;;;;;;;3.97;1.75;;;;;;;21.04;64.98;98731.09;2075808;28;20779;-52
2023/05/07 03:26:36;;;;;;;4.30;2.13;;;;;;;21.06;65.02;98730.88;2072634;28;20435;-50
2023/05/07 03:27:37;;;;;;;2.13;1.60;;;;;;;21.04;65.07;98727.59;2077728;28;20507;-50
2023/05/07 03:28:39;;;;;;;2.90;2.35;;;;;;;21.06;64.68;98734.41;2075701;28;20057;-52
2023/05/07 03:29:40;;;;;;;3.85;2.47;;;;;;;21.07;64.68;98733.34;2076852;28;20565;-55
2023/05/07 03:30:41;;;;;;;3.08;1.88;;;;;;;21.08;64.53;98732.31;2075676;28;20095;-54
2023/05/07 03:31:42;;;;;;;2.08;1.77;;;;;;;21.08;64.21;98731.47;2075508;28;20145;-55
2023/05/07 03:32:44;;;;;;;3.60;1.90;;;;;;;21.08;64.55;98734.19;2078910;28;20418;-56
2023/05/07 03:33:54;;;;;;;3.30;2.13;;;;;;;21.06;64.29;98742.50;2077887;28;20099;-57
2023/05/07 03:34:55;;;;;;;3.53;1.90;;;;;;;21.06;64.76;98739.81;2079116;28;20052;-54
2023/05/07 03:35:56;;;;;;;5.03;1.85;;;;;;;21.08;64.65;98735.00;2076471;28;20083;-52
2023/05/07 03:36:58;;;;;;;3.92;1.85;;;;;;;21.08;64.68;98732.31;2078357;28;20061;-52
2023/05/07 03:37:58;;;;;;;2.67;1.60;;;;;;;21.08;65.11;98734.19;2078011;28;20049;-53
2023/05/07 03:39:00;;;;;;;3.53;1.90;;;;;;;21.07;64.62;98732.53;2076589;28;20106;-52
2023/05/07 03:40:01;;;;;;;2.92;1.45;;;;;;;21.06;64.51;98734.41;2078596;28;20110;-55
2023/05/07 03:41:03;;;;;;;4.88;2.40;;;;;;;21.06;64.47;98731.72;2077480;28;20059;-49
2023/05/07 03:42:05;;;;;;;2.70;1.90;;;;;;;21.09;65.02;98736.66;2078368;28;20048;-55
2023/05/07 03:43:07;;;;;;;3.45;2.10;;;;;;;21.09;64.64;98730.44;2076373;28;20072;-51
2023/05/07 03:44:08;;;;;;;3.75;2.00;;;;;;;21.06;64.80;98729.03;2079096;28;20111;-53
2023/05/07 03:45:10;;;;;;;2.28;1.67;;;;;;;21.06;64.93;98733.56;2076309;28;20053;-53
2023/05/07 03:46:10;;;;;;;2.30;1.50;;;;;;;21.08;64.59;98729.59;2076214;28;20049;-58
2023/05/07 03:47:13;;;;;;;2.03;1.45;;;;;;;21.08;64.53;98732.31;2077731;28;20049;-56
2023/05/07 03:48:13;;;;;;;3.55;1.50;;;;;;;21.07;64.72;98733.34;2077272;28;20049;-52
2023/05/07 03:49:15;;;;;;;;;;;;;;;20.98;65.02;98730.09;2076362;28;20048;-53
2023/05/07 03:50:15;;;;;;;1.65;1.38;;;;;;;21.01;65.04;98728.84;2077106;28;19929;-56
2023/05/07 03:51:17;;;;;;;;;;;;;;;20.92;65.38;98727.41;2075177;28;20123;-49
2023/05/07 03:52:22;;;;;;;1.80;1.55;;;;;;;20.95;65.09;98727.03;2076780;28;19959;-54
2023/05/07 03:53:24;;;;;;;1.98;1.80;;;;;;;21.00;65.07;98737.94;2076797;28;20053;-50
2023/05/07 03:54:24;;;;;;;3.85;1.52;;;;;;;21.04;64.58;98739.19;2078045;28;20053;-54
2023/05/07 03:55:26;;;;;;;2.35;1.60;;;;;;;21.04;65.05;98736.50;2076236;28;20063;-53
2023/05/07 03:56:27;;;;;;;7.25;2.10;;;;;;;21.08;64.61;98736.88;2076405;28;20458;-53
2023/05/07 03:57:30;;;;;;;2.90;1.75;;;;;;;21.07;64.97;98737.94;2073968;28;20063;-56
2023/05/07 03:58:31;;;;;;;2.80;1.50;;;;;;;21.06;64.97;98745.19;2074988;28;20090;-53
2023/05/07 03:59:32;;;;;;;;;;;;;;;20.97;64.88;98743.78;2075912;28;20049;-56
2023/05/07 04:00:37;;;;;;;4.20;2.00;;;;;;;20.99;65.29;98747.09;2078003;28;19974;-55
2023/05/07 04:01:39;;;;;;;5.03;1.70;;;;;;;21.03;64.95;98748.31;2076290;28;20491;-55
2023/05/07 04:02:40;;;;;;;2.95;1.77;;;;;;;21.04;64.90;98738.38;2075523;28;20061;-53
2023/05/07 04:03:42;;;;;;;1.58;1.33;;;;;;;21.08;64.84;98740.41;2077857;28;20878;-55
2023/05/07 04:04:42;;;;;;;1.92;1.55;;;;;;;21.10;64.88;98742.88;2076463;28;20109;-54
2023/05/07 04:05:44;;;;;;;2.05;1.88;;;;;;;21.08;64.75;98745.78;2075689;28;20063;-50
2023/05/07 04:06:45;;;;;;;2.25;1.90;;;;;;;21.07;64.52;98744.16;2076062;28;20042;-52
2023/05/07 04:07:46;;;;;;;1.90;1.40;;;;;;;21.06;64.62;98742.50;2075758;28;20047;-55
2023/05/07 04:08:47;;;;;;;2.60;1.83;;;;;;;21.06;64.66;98747.91;2076715;28;20052;-50
2023/05/07 04:09:49;;;;;;;3.17;1.50;;;;;;;21.08;64.79;98745.78;2075364;28;20098;-52
2023/05/07 04:10:54;;;;;;;2.85;2.22;;;;;;;21.07;64.51;98754.13;2075385;28;20046;-53
2023/05/07 04:11:56;;;;;;;1.67;1.02;;;;;;;21.06;64.75;98750.59;2073981;28;20048;-52
2023/05/07 04:12:58;;;;;;;3.28;1.27;;;;;;;21.06;64.77;98750.59;2071476;28;20131;-56
2023/05/07 04:14:00;;;;;;;3.17;1.55;;;;;;;21.07;64.68;98749.53;2077153;28;20060;-56
2023/05/07 04:15:00;;;;;;;2.47;1.80;;;;;;;21.08;64.50;98748.47;2076612;28;20052;-52
2023/05/07 04:16:03;;;;;;;4.38;1.73;;;;;;;21.08;64.76;98756.56;2076423;28;20045;-51
2023/05/07 04:17:05;;;;;;;3.75;1.50;;;;;;;21.08;64.70;98750.34;2075992;28;20107;-55
2023/05/07 04:18:06;;;;;;;3.17;1.45;;;;;;;21.07;64.74;98754.13;2077350;28;20135;-50
2023/05/07 04:19:08;;;;;;;2.22;1.55;;;;;;;21.08;64.66;98756.56;2076160;28;20044;-55
2023/05/07 04:20:10;;;;;;;3.17;1.90;;;;;;;21.07;64.65;98754.94;2076217;28;20136;-53
2023/05/07 04:21:15;;;;;;;1.95;1.50;;;;;;;21.09;64.48;98754.69;2078346;28;20082;-53
2023/05/07 04:22:16;;;;;;;2.95;1.42;;;;;;;21.07;64.85;98762.19;2076568;28;20504;-55
2023/05/07 04:23:18;;;;;;;3.38;1.48;;;;;;;21.09;64.63;98760.09;2076584;28;20067;-56
2023/05/07 04:24:18;;;;;;;2.88;1.67;;;;;;;21.11;64.53;98760.72;2076034;28;20593;-57
2023/05/07 04:25:20;;;;;;;6.00;1.73;;;;;;;21.07;64.41;98760.31;2077358;28;20111;-53
2023/05/07 04:26:23;;;;;;;1.63;1.30;;;;;;;21.06;64.77;98764.06;2074199;28;20053;-55
2023/05/07 04:27:23;;;;;;;5.85;2.28;;;;;;;21.08;64.68;98758.44;2075098;28;20052;-51
2023/05/07 04:28:27;;;;;;;3.65;1.85;;;;;;;21.10;64.52;98764.47;2077043;28;20142;-54
2023/05/07 04:29:28;;;;;;;2.85;1.50;;;;;;;21.10;64.59;98765.28;2076916;28;20049;-56
2023/05/07 04:30:30;;;;;;;2.83;1.23;;;;;;;21.12;64.63;98760.50;2074857;28;20103;-52
2023/05/07 04:31:31;;;;;;;2.70;1.40;;;;;;;21.15;64.30;98759.25;2076119;28;20052;-55
2023/05/07 04:32:33;;;;;;;2.65;1.70;;;;;;;21.10;64.52;98759.88;2075716;28;20049;-53
2023/05/07 04:33:34;;;;;;;3.17;1.50;;;;;;;21.09;64.51;98762.78;2073911;28;20049;-57
2023/05/07 04:34:35;;;;;;;5.35;1.27;;;;;;;21.11;64.86;98763.41;2076482;28;20790;-54
2023/05/07 04:35:36;;;;;;;2.60;1.40;;;;;;;21.12;64.32;98762.38;2074962;28;20202;-52
2023/05/07 04:36:38;;;;;;;5.18;1.45;;;;;;;21.09;64.59;98762.78;2076918;28;20049;-55
2023/05/07 04:37:39;;;;;;;1.85;1.27;;;;;;;21.12;64.42;98759.69;2075967;28;20114;-53
2023/05/07 04:38:41;;;;;;;1.88;1.52;;;;;;;21.09;64.17;98769.03;2075948;28;20143;-51
2023/05/07 04:39:42;;;;;;;3.63;1.30;;;;;;;21.09;64.53;98769.03;2076886;28;20045;-51
2023/05/07 04:40:43;;;;;;;;;;;;;;;21.00;64.84;98767.63;2075995;28;20049;-53
2023/05/07 04:41:44;;;;;;;3.03;1.60;;;;;;;21.03;64.80;98760.97;2075974;28;19947;-52
2023/05/07 04:42:46;;;;;;;;;;;;;;;20.98;64.70;98772.41;2075676;28;20111;-51
2023/05/07 04:43:48;;;;;;;2.70;1.50;;;;;;;21.01;64.90;98768.47;2076017;28;19986;-50
2023/05/07 04:44:53;;;;;;;2.85;1.50;;;;;;;21.02;64.68;98770.09;2073596;28;20454;-50
2023/05/07 04:45:54;;;;;;;2.90;1.67;;;;;;;21.03;64.58;98769.88;2077758;28;20892;-52
2023/05/07 04:46:56;;;;;;;2.60;1.70;;;;;;;21.05;64.51;98772.38;2075988;28;20053;-52
2023/05/07 04:47:56;;;;;;;2.80;1.27;;;;;;;21.04;64.73;98766.16;2076967;28;20049;-53
2023/05/07 04:48:58;;;;;;;;;;;;;;;20.95;64.99;98772.84;2076615;28;20053;-54
2023/05/07 04:49:58;;;;;;;4.85;2.13;;;;;;;20.97;64.96;98771.56;2076794;28;19924;-54
2023/05/07 04:51:00;;;;;;;;;;;;;;;20.92;64.87;98774.09;2077361;28;20134;-53
2023/05/07 04:52:01;;;;;;;1.50;1.15;;;;;;;20.95;64.70;98772.84;2076636;28;20001;-55
2023/05/07 04:53:02;;;;;;;;;;;;;;;20.88;65.11;98770.16;2076444;28;20162;-52
2023/05/07 04:54:03;;;;;;;2.75;1.63;;;;;;;20.94;64.60;98771.19;2075649;28;19975;-54